createdAt,value
2022-09-05T00:00:58.382Z,52.76
2022-09-05T00:03:40.671Z,52.73
2022-09-05T00:06:17.695Z,52.68
2022-09-05T00:08:54.857Z,52.87
2022-09-05T00:12:06.431Z,53.25
2022-09-05T00:15:16.686Z,53.25
2022-09-05T00:19:03.874Z,53.39
2022-09-05T00:24:24.866Z,53.15
2022-09-05T00:24:28.427Z,53.07
2022-09-05T00:27:19.653Z,53.37
2022-09-05T00:31:07.223Z,53.56
2022-09-05T00:33:18.124Z,53.45
2022-09-05T00:35:57.189Z,53.47
2022-09-05T00:38:36.535Z,53.51
2022-09-05T00:41:12.994Z,53.46
2022-09-05T00:43:49.521Z,53.50
2022-09-05T00:46:36.965Z,53.77
2022-09-05T00:49:20.083Z,53.73
2022-09-05T00:52:06.544Z,53.81
2022-09-05T00:54:56.331Z,53.64
2022-09-05T00:58:03.514Z,53.54
2022-09-05T01:00:54.051Z,53.27
2022-09-05T01:03:34.382Z,53.67
2022-09-05T01:06:17.732Z,53.85
2022-09-05T01:09:07.346Z,53.76
2022-09-05T01:11:50.387Z,54.02
2022-09-05T01:14:59.405Z,54.08
2022-09-05T01:17:56.777Z,54.15
2022-09-05T01:21:06.383Z,54.24
2022-09-05T01:27:38.228Z,54.30
2022-09-05T01:30:32.112Z,54.42
2022-09-05T01:33:31.084Z,54.90
2022-09-05T01:36:30.675Z,54.88
2022-09-05T01:40:14.903Z,54.95
2022-09-05T01:42:41.401Z,54.98
2022-09-05T01:45:31.773Z,54.97
2022-09-05T01:48:57.921Z,55.38
2022-09-05T01:51:42.109Z,55.41
2022-09-05T01:54:49.521Z,55.70
2022-09-05T01:57:29.808Z,55.23
2022-09-05T02:00:21.808Z,55.31
2022-09-05T02:03:09.953Z,55.50
2022-09-05T02:06:29.429Z,55.94
2022-09-05T02:09:38.398Z,56.03
2022-09-05T02:12:15.673Z,56.03
2022-09-05T02:14:58.486Z,56.22
2022-09-05T02:17:50.567Z,56.28
2022-09-05T02:20:26.571Z,55.75
2022-09-05T02:23:24.617Z,56.60
2022-09-05T02:26:18.212Z,56.68
2022-09-05T02:29:01.337Z,56.81
2022-09-05T02:31:41.980Z,56.84
2022-09-05T02:34:22.237Z,56.79
2022-09-05T02:37:15.173Z,57.38
2022-09-05T02:45:07.889Z,57.36
2022-09-05T02:45:20.203Z,57.05
2022-09-05T02:46:55.710Z,57.56
2022-09-05T02:51:15.660Z,57.33
2022-09-05T02:57:26.386Z,57.41
2022-09-05T02:57:33.358Z,57.60
2022-09-05T02:59:10.684Z,57.69
2022-09-05T03:01:57.503Z,57.58
2022-09-05T03:05:04.489Z,57.75
2022-09-05T03:08:07.798Z,58.10
2022-09-05T03:11:03.237Z,57.90
2022-09-05T03:13:54.354Z,58.15
2022-09-05T03:16:46.989Z,57.83
2022-09-05T03:19:46.140Z,58.19
2022-09-05T03:22:37.278Z,57.85
2022-09-05T03:25:40.334Z,58.19
2022-09-05T03:28:27.088Z,58.19
2022-09-05T03:31:30.970Z,58.33
2022-09-05T03:34:16.565Z,58.27
2022-09-05T03:37:08.044Z,58.04
2022-09-05T03:39:58.624Z,58.29
2022-09-05T03:42:46.875Z,58.33
2022-09-05T03:45:36.514Z,58.01
2022-09-05T03:48:35.724Z,58.47
2022-09-05T03:57:13.603Z,58.60
2022-09-05T03:57:19.946Z,58.36
2022-09-05T03:58:55.853Z,58.68
2022-09-05T04:05:37.990Z,58.29
2022-09-05T04:08:16.281Z,58.36
2022-09-05T04:08:17.180Z,58.83
2022-09-05T04:10:53.964Z,58.64
2022-09-05T04:13:38.058Z,58.65
2022-09-05T04:16:25.202Z,58.78
2022-09-05T04:19:12.189Z,58.95
2022-09-05T04:22:18.112Z,59.22
2022-09-05T04:25:04.566Z,59.01
2022-09-05T04:28:09.539Z,58.95
2022-09-05T04:30:48.145Z,58.85
2022-09-05T04:33:35.908Z,58.90
2022-09-05T04:36:33.026Z,59.03
2022-09-05T04:39:23.526Z,58.70
2022-09-05T04:42:14.103Z,58.88
2022-09-05T04:44:59.170Z,59.06
2022-09-05T04:47:40.156Z,59.03
2022-09-05T04:50:23.379Z,59.19
2022-09-05T04:53:36.711Z,59.28
2022-09-05T04:56:20.327Z,59.08
2022-09-05T05:01:09.657Z,58.87
2022-09-05T05:06:09.584Z,59.13
2022-09-05T05:06:19.944Z,59.10
2022-09-05T05:08:38.738Z,58.86
2022-09-05T05:18:03.037Z,58.88
2022-09-05T05:18:09.601Z,58.74
2022-09-05T05:18:13.273Z,58.85
2022-09-05T05:20:41.427Z,58.48
2022-09-05T05:23:19.025Z,58.55
2022-09-05T05:25:53.072Z,58.48
2022-09-05T05:28:39.544Z,58.26
2022-09-05T05:31:19.402Z,58.42
2022-09-05T05:33:54.286Z,58.25
2022-09-05T05:36:33.297Z,57.97
2022-09-05T05:39:15.119Z,57.90
2022-09-05T05:41:53.948Z,57.95
2022-09-05T05:44:35.044Z,57.79
2022-09-05T05:47:28.347Z,57.68
2022-09-05T05:50:03.453Z,57.38
2022-09-05T05:53:02.270Z,57.50
2022-09-05T05:55:58.161Z,57.19
2022-09-05T05:58:57.491Z,57.02
2022-09-05T06:01:47.455Z,56.96
2022-09-05T06:04:46.908Z,56.56
2022-09-05T06:08:10.234Z,56.56
2022-09-05T06:14:48.848Z,55.99
2022-09-05T06:14:58.260Z,56.02
2022-09-05T06:17:31.101Z,55.86
2022-09-05T06:22:08.619Z,55.48
2022-09-05T06:24:14.223Z,55.59
2022-09-05T06:27:10.049Z,55.60
2022-09-05T06:29:58.065Z,55.42
2022-09-05T06:33:00.218Z,55.34
2022-09-05T06:35:49.274Z,55.37
2022-09-05T06:39:13.276Z,55.07
2022-09-05T06:42:28.628Z,54.93
2022-09-05T06:45:34.303Z,55.03
2022-09-05T06:48:35.268Z,55.02
2022-09-05T06:51:24.523Z,54.87
2022-09-05T06:54:47.155Z,54.96
2022-09-05T06:57:54.401Z,54.66
2022-09-05T07:00:51.559Z,54.39
2022-09-05T07:05:14.614Z,54.02
2022-09-05T07:07:16.967Z,53.72
2022-09-05T07:10:37.802Z,53.86
2022-09-05T07:13:56.420Z,53.05
2022-09-05T07:16:38.935Z,53.03
2022-09-05T07:19:35.307Z,52.52
2022-09-05T07:22:47.663Z,52.28
2022-09-05T07:25:28.171Z,52.53
2022-09-05T07:28:29.899Z,51.92
2022-09-05T07:31:27.669Z,51.86
2022-09-05T07:34:35.082Z,51.76
2022-09-05T07:37:27.588Z,51.66
2022-09-05T07:40:03.944Z,52.11
2022-09-05T07:43:08.376Z,52.04
2022-09-05T07:46:11.640Z,51.70
2022-09-05T07:48:51.903Z,51.67
2022-09-05T07:56:54.441Z,51.38
2022-09-05T07:57:10.789Z,51.11
2022-09-05T07:57:42.949Z,51.14
2022-09-05T08:00:26.873Z,50.67
2022-09-05T08:03:10.839Z,50.03
2022-09-05T08:05:45.866Z,49.94
2022-09-05T08:08:28.563Z,49.97
2022-09-05T08:11:25.783Z,49.82
2022-09-05T08:14:40.571Z,49.73
2022-09-05T08:17:07.455Z,49.86
2022-09-05T08:19:45.635Z,49.43
2022-09-05T08:22:24.550Z,49.46
2022-09-05T08:25:17.074Z,49.42
2022-09-05T08:28:19.628Z,48.87
2022-09-05T08:31:04.180Z,48.84
2022-09-05T08:33:37.277Z,48.86
2022-09-05T08:36:17.402Z,48.63
2022-09-05T08:38:50.754Z,47.70
2022-09-05T08:41:49.719Z,47.43
2022-09-05T08:46:43.588Z,47.35
2022-09-05T08:47:48.474Z,47.26
2022-09-05T08:50:58.594Z,47.12
2022-09-05T08:53:46.363Z,46.64
2022-09-05T08:56:23.192Z,46.92
2022-09-05T08:59:28.116Z,46.98
2022-09-05T09:02:47.908Z,46.44
2022-09-05T09:05:46.139Z,47.11
2022-09-05T09:08:56.397Z,46.69
2022-09-05T09:11:34.346Z,46.83
2022-09-05T09:14:36.630Z,46.43
2022-09-05T09:17:30.719Z,46.28
2022-09-05T09:20:25.490Z,45.71
2022-09-05T09:23:35.706Z,45.45
2022-09-05T09:26:15.791Z,45.26
2022-09-05T09:29:08.930Z,44.95
2022-09-05T09:32:05.060Z,44.48
2022-09-05T09:34:47.593Z,44.67
2022-09-05T09:37:59.632Z,44.05
2022-09-05T09:41:14.352Z,43.91
2022-09-05T09:44:26.380Z,42.93
2022-09-05T09:46:58.065Z,43.04
2022-09-05T09:49:51.324Z,43.30
2022-09-05T09:53:24.664Z,42.76
2022-09-05T09:56:14.229Z,42.54
2022-09-05T09:59:15.076Z,42.86
2022-09-05T10:02:17.729Z,41.72
2022-09-05T10:10:39.257Z,42.06
2022-09-05T10:10:49.592Z,41.39
2022-09-05T10:12:08.288Z,41.69
2022-09-05T10:14:58.359Z,41.21
2022-09-05T10:17:56.437Z,41.25
2022-09-05T10:20:29.744Z,41.37
2022-09-05T10:23:44.969Z,41.30
2022-09-05T10:26:50.378Z,41.25
2022-09-05T10:29:46.518Z,40.94
2022-09-05T10:35:11.196Z,41.20
2022-09-05T10:35:35.699Z,41.14
2022-09-05T10:38:43.042Z,40.58
2022-09-05T10:41:22.471Z,40.86
2022-09-05T10:44:01.446Z,40.68
2022-09-05T10:46:59.676Z,40.70
2022-09-05T10:49:35.148Z,40.46
2022-09-05T10:52:22.524Z,40.81
2022-09-05T10:55:14.318Z,40.81
2022-09-05T10:58:01.118Z,40.72
2022-09-05T11:02:24.867Z,40.69
2022-09-05T11:03:45.781Z,40.56
2022-09-05T11:06:25.212Z,40.68
2022-09-05T11:09:16.495Z,40.40
2022-09-05T11:12:03.540Z,40.26
2022-09-05T11:14:49.280Z,40.30
2022-09-05T11:17:41.246Z,39.92
2022-09-05T11:20:42.951Z,39.63
2022-09-05T11:23:23.506Z,39.81
2022-09-05T11:26:06.012Z,40.07
2022-09-05T11:29:00.629Z,39.75
2022-09-05T11:34:04.164Z,39.63
2022-09-05T11:39:49.112Z,39.47
2022-09-05T11:40:03.913Z,39.66
2022-09-05T11:41:32.472Z,39.55
2022-09-05T11:44:28.764Z,39.95
2022-09-05T11:47:30.144Z,39.82
2022-09-05T11:50:25.288Z,39.82
2022-09-05T11:53:02.787Z,39.58
2022-09-05T11:55:58.574Z,39.04
2022-09-05T11:58:46.903Z,39.26
2022-09-05T12:01:57.737Z,38.99
2022-09-05T12:05:48.966Z,38.56
2022-09-05T12:08:13.678Z,38.70
2022-09-05T12:11:09.790Z,38.46
2022-09-05T12:14:49.292Z,38.48
2022-09-05T12:17:35.292Z,38.36
2022-09-05T12:20:22.163Z,38.06
2022-09-05T12:23:24.913Z,38.19
2022-09-05T12:27:38.395Z,38.20
2022-09-05T12:29:33.517Z,37.75
2022-09-05T12:33:32.814Z,37.55
2022-09-05T12:36:13.112Z,38.00
2022-09-05T12:41:32.249Z,37.74
2022-09-05T12:42:08.647Z,37.65
2022-09-05T12:44:58.733Z,37.67
2022-09-05T12:47:31.161Z,37.42
2022-09-05T12:50:14.264Z,37.05
2022-09-05T12:52:59.873Z,37.02
2022-09-05T12:55:38.476Z,37.04
2022-09-05T13:02:55.373Z,37.17
2022-09-05T13:03:13.990Z,36.39
2022-09-05T13:04:29.876Z,37.27
2022-09-05T13:07:09.530Z,37.18
2022-09-05T13:13:22.872Z,36.88
2022-09-05T13:14:53.083Z,36.79
2022-09-05T13:15:52.410Z,36.97
2022-09-05T13:18:37.414Z,37.17
2022-09-05T13:21:27.102Z,37.32
2022-09-05T13:24:18.784Z,37.51
2022-09-05T13:26:58.610Z,37.07
2022-09-05T13:31:36.177Z,37.01
2022-09-05T13:38:15.038Z,37.13
2022-09-05T13:38:15.469Z,37.11
2022-09-05T13:39:06.872Z,37.06
2022-09-05T13:41:48.706Z,37.07
2022-09-05T13:44:27.970Z,37.33
2022-09-05T13:47:16.358Z,37.47
2022-09-05T13:50:07.878Z,37.15
2022-09-05T13:52:48.903Z,37.00
2022-09-05T13:55:44.173Z,36.82
2022-09-05T13:58:56.769Z,37.09
2022-09-05T14:01:40.159Z,37.04
2022-09-05T14:05:17.813Z,37.06
2022-09-05T14:08:10.211Z,37.02
2022-09-05T14:10:54.971Z,36.94
2022-09-05T14:13:36.960Z,36.80
2022-09-05T14:16:26.060Z,37.21
2022-09-05T14:19:16.725Z,37.23
2022-09-05T14:21:50.058Z,36.94
2022-09-05T14:24:27.453Z,36.65
2022-09-05T14:27:00.321Z,36.81
2022-09-05T14:29:47.635Z,36.78
2022-09-05T14:37:37.044Z,37.19
2022-09-05T14:37:50.982Z,37.13
2022-09-05T14:38:54.701Z,37.47
2022-09-05T14:42:09.632Z,37.61
2022-09-05T14:45:15.587Z,37.62
2022-09-05T14:48:02.894Z,37.87
2022-09-05T14:51:02.014Z,37.63
2022-09-05T14:54:02.704Z,37.79
2022-09-05T14:57:23.478Z,38.03
2022-09-05T15:02:50.080Z,37.73
2022-09-05T15:03:00.567Z,38.07
2022-09-05T15:05:30.052Z,37.88
2022-09-05T15:08:14.895Z,38.01
2022-09-05T15:12:25.168Z,38.24
2022-09-05T15:14:08.677Z,38.28
2022-09-05T15:16:45.700Z,38.28
2022-09-05T15:20:05.757Z,38.06
2022-09-05T15:22:43.461Z,38.23
2022-09-05T15:25:23.163Z,38.04
2022-09-05T15:27:55.865Z,38.46
2022-09-05T15:30:35.328Z,38.79
2022-09-05T15:33:25.423Z,38.88
2022-09-05T15:35:59.491Z,39.04
2022-09-05T15:38:48.933Z,39.02
2022-09-05T15:41:29.917Z,39.75
2022-09-05T15:44:25.958Z,40.10
2022-09-05T15:47:01.739Z,40.23
2022-09-05T15:49:40.448Z,40.23
2022-09-05T15:52:17.754Z,40.40
2022-09-05T15:55:26.831Z,40.50
2022-09-05T15:58:07.244Z,40.15
2022-09-05T16:00:51.322Z,40.24
2022-09-05T16:03:56.586Z,39.95
2022-09-05T16:10:49.816Z,40.24
2022-09-05T16:10:50.787Z,40.01
2022-09-05T16:13:15.568Z,40.40
2022-09-05T16:22:15.561Z,40.88
2022-09-05T16:23:34.271Z,40.97
2022-09-05T16:23:34.273Z,41.05
2022-09-05T16:24:58.608Z,41.14
2022-09-05T16:27:44.780Z,41.94
2022-09-05T16:30:24.655Z,41.09
2022-09-05T16:33:13.814Z,41.72
2022-09-05T16:35:57.241Z,41.90
2022-09-05T16:38:49.911Z,42.37
2022-09-05T16:41:42.108Z,42.71
2022-09-05T16:44:22.318Z,42.42
2022-09-05T16:47:25.501Z,42.26
2022-09-05T16:50:25.253Z,42.21
2022-09-05T16:53:30.820Z,42.09
2022-09-05T16:56:37.767Z,42.14
2022-09-05T16:59:19.076Z,42.51
2022-09-05T17:02:05.659Z,42.46
2022-09-05T17:05:05.991Z,42.98
2022-09-05T17:08:02.526Z,43.31
2022-09-05T17:10:52.882Z,42.85
2022-09-05T17:13:35.603Z,42.79
2022-09-05T17:16:11.938Z,43.82
2022-09-05T17:18:46.336Z,43.57
2022-09-05T17:21:35.226Z,43.27
2022-09-05T17:29:17.119Z,43.94
2022-09-05T17:29:49.645Z,44.10
2022-09-05T17:31:47.336Z,43.97
2022-09-05T17:36:38.464Z,44.22
2022-09-05T17:39:44.685Z,44.65
2022-09-05T17:43:06.100Z,44.50
2022-09-05T17:45:56.967Z,44.77
2022-09-05T17:49:10.124Z,44.87
2022-09-05T17:51:42.043Z,44.99
2022-09-05T17:54:33.757Z,45.02
2022-09-05T17:57:27.934Z,45.22
2022-09-05T18:00:05.451Z,45.06
2022-09-05T18:02:58.664Z,45.09
2022-09-05T18:05:56.836Z,45.16
2022-09-05T18:08:54.729Z,45.48
2022-09-05T18:11:27.168Z,45.60
2022-09-05T18:14:14.897Z,45.57
2022-09-05T18:17:35.866Z,45.82
2022-09-05T18:19:49.484Z,45.65
2022-09-05T18:22:36.250Z,45.86
2022-09-05T18:25:28.911Z,45.73
2022-09-05T18:31:41.496Z,46.01
2022-09-05T18:34:13.966Z,46.07
2022-09-05T18:36:48.816Z,46.46
2022-09-05T18:39:23.149Z,46.49
2022-09-05T18:42:33.583Z,46.65
2022-09-05T18:45:14.521Z,46.63
2022-09-05T18:47:59.039Z,46.46
2022-09-05T18:50:35.173Z,46.86
2022-09-05T18:53:12.996Z,46.68
2022-09-05T18:56:31.166Z,47.21
2022-09-05T18:59:15.338Z,46.96
2022-09-05T19:01:58.754Z,47.32
2022-09-05T19:04:40.860Z,47.38
2022-09-05T19:07:40.742Z,47.27
2022-09-05T19:10:36.255Z,47.17
2022-09-05T19:13:13.518Z,47.67
2022-09-05T19:16:21.088Z,47.71
2022-09-05T19:19:10.015Z,48.02
2022-09-05T19:21:47.827Z,47.56
2022-09-05T19:24:44.904Z,47.72
2022-09-05T19:30:35.904Z,47.63
2022-09-05T19:36:46.446Z,47.41
2022-09-05T19:37:07.383Z,47.53
2022-09-05T19:37:10.376Z,47.52
2022-09-05T19:40:46.731Z,47.76
2022-09-05T19:47:35.257Z,47.88
2022-09-05T19:47:47.447Z,48.02
2022-09-05T19:48:07.509Z,47.66
2022-09-05T19:50:39.717Z,47.83
2022-09-05T19:53:15.392Z,48.45
2022-09-05T19:55:47.450Z,48.55
2022-09-05T19:58:22.922Z,48.09
2022-09-05T20:01:08.046Z,48.39
2022-09-05T20:03:44.924Z,48.24
2022-09-05T20:06:28.951Z,48.17
2022-09-05T20:09:21.776Z,48.86
2022-09-05T20:11:58.118Z,48.40
2022-09-05T20:14:36.614Z,48.69
2022-09-05T20:17:32.066Z,48.83
2022-09-05T20:20:17.244Z,48.80
2022-09-05T20:22:51.402Z,48.36
2022-09-05T20:25:36.242Z,48.75
2022-09-05T20:28:14.268Z,48.96
2022-09-05T20:30:48.782Z,48.70
2022-09-05T20:33:26.829Z,48.99
2022-09-05T20:40:03.931Z,48.66
2022-09-05T20:43:24.415Z,48.95
2022-09-05T20:43:31.635Z,49.04
2022-09-05T20:44:51.193Z,49.33
2022-09-05T20:53:11.101Z,49.21
2022-09-05T20:54:19.245Z,49.53
2022-09-05T20:54:22.172Z,49.48
2022-09-05T20:56:30.879Z,49.25
2022-09-05T20:59:02.361Z,49.38
2022-09-05T21:01:37.851Z,49.51
2022-09-05T21:04:09.315Z,49.38
2022-09-05T21:06:41.561Z,49.48
2022-09-05T21:09:24.707Z,49.71
2022-09-05T21:11:59.038Z,49.53
2022-09-05T21:14:30.641Z,49.89
2022-09-05T21:17:04.939Z,49.72
2022-09-05T21:19:56.715Z,50.01
2022-09-05T21:22:39.384Z,49.90
2022-09-05T21:25:14.839Z,50.03
2022-09-05T21:28:04.970Z,50.15
2022-09-05T21:30:39.919Z,50.07
2022-09-05T21:33:18.507Z,50.31
2022-09-05T21:35:59.427Z,50.27
2022-09-05T21:38:33.417Z,50.12
2022-09-05T21:41:05.402Z,50.27
2022-09-05T21:47:43.758Z,50.22
2022-09-05T21:47:49.983Z,50.12
2022-09-05T21:49:33.603Z,50.13
2022-09-05T21:52:08.183Z,50.26
2022-09-05T21:59:18.011Z,50.66
2022-09-05T21:59:25.703Z,50.74
2022-09-05T22:00:29.068Z,50.19
2022-09-05T22:03:00.653Z,50.51
2022-09-05T22:05:37.419Z,50.53
2022-09-05T22:08:10.204Z,50.71
2022-09-05T22:10:51.445Z,50.85
2022-09-05T22:13:24.209Z,50.98
2022-09-05T22:15:57.093Z,50.60
2022-09-05T22:18:29.217Z,50.99
2022-09-05T22:21:33.373Z,50.85
2022-09-05T22:24:01.384Z,50.90
2022-09-05T22:27:11.162Z,50.88
2022-09-05T22:29:39.869Z,50.80
2022-09-05T22:32:11.264Z,51.03
2022-09-05T22:34:42.647Z,50.90
2022-09-05T22:37:16.305Z,51.00
2022-09-05T22:39:48.540Z,51.41
2022-09-05T22:42:20.122Z,51.49
2022-09-05T22:44:51.599Z,51.40
2022-09-05T22:47:23.101Z,51.38
2022-09-05T22:49:54.529Z,51.67
2022-09-05T22:53:06.749Z,51.68
2022-09-05T22:55:42.328Z,51.72
2022-09-05T22:58:14.857Z,51.59
2022-09-05T23:00:46.276Z,51.86
2022-09-05T23:03:17.678Z,51.98
2022-09-05T23:05:50.192Z,52.25
2022-09-05T23:08:21.550Z,51.83
2022-09-05T23:10:52.955Z,52.07
2022-09-05T23:13:24.766Z,52.22
2022-09-05T23:15:59.349Z,51.95
2022-09-05T23:18:31.494Z,52.28
2022-09-05T23:21:04.518Z,52.45
2022-09-05T23:23:37.226Z,52.28
2022-09-05T23:26:13.896Z,52.21
2022-09-05T23:28:45.376Z,52.56
2022-09-05T23:31:16.814Z,52.61
2022-09-05T23:33:48.210Z,52.75
2022-09-05T23:36:19.609Z,52.67
2022-09-05T23:38:51.182Z,52.66
2022-09-05T23:41:22.643Z,52.86
2022-09-05T23:43:54.064Z,52.91
2022-09-05T23:46:25.537Z,52.78
2022-09-05T23:48:56.992Z,52.71
2022-09-05T23:51:28.457Z,53.01
2022-09-05T23:53:59.871Z,53.33
2022-09-05T23:56:31.341Z,53.28
2022-09-05T23:59:02.785Z,53.22
